createdAt,value
2024-03-26T00:00:07.506Z,65.49
2024-03-26T00:02:34.852Z,65.52
2024-03-26T00:05:01.833Z,65.63
2024-03-26T00:07:28.757Z,65.52
2024-03-26T00:09:55.772Z,65.54
2024-03-26T00:12:22.816Z,65.41
2024-03-26T00:14:49.619Z,65.48
2024-03-26T00:17:16.607Z,65.51
2024-03-26T00:19:43.742Z,65.44
2024-03-26T00:22:10.840Z,65.63
2024-03-26T00:24:37.709Z,65.69
2024-03-26T00:27:04.576Z,65.49
2024-03-26T00:29:31.412Z,65.64
2024-03-26T00:31:58.307Z,65.47
2024-03-26T00:34:25.358Z,65.61
2024-03-26T00:36:52.343Z,65.57
2024-03-26T00:39:19.393Z,65.60
2024-03-26T00:41:46.489Z,65.55
2024-03-26T00:44:13.392Z,65.40
2024-03-26T00:46:40.386Z,65.43
2024-03-26T00:49:07.259Z,65.39
2024-03-26T00:51:34.999Z,65.41
2024-03-26T00:54:01.871Z,65.36
2024-03-26T00:56:29.034Z,65.41
2024-03-26T00:58:56.206Z,65.36
2024-03-26T01:01:23.223Z,65.35
2024-03-26T01:03:52.299Z,65.43
2024-03-26T01:06:19.331Z,65.41
2024-03-26T01:08:46.240Z,65.56
2024-03-26T01:11:13.796Z,65.73
2024-03-26T01:13:41.217Z,65.70
2024-03-26T01:16:08.408Z,65.72
2024-03-26T01:18:36.405Z,65.62
2024-03-26T01:21:03.845Z,65.81
2024-03-26T01:23:30.887Z,65.88
2024-03-26T01:25:57.846Z,65.76
2024-03-26T01:28:24.779Z,65.84
2024-03-26T01:30:51.784Z,65.94
2024-03-26T01:33:18.626Z,66.04
2024-03-26T01:35:53.049Z,66.04
2024-03-26T01:38:19.926Z,66.03
2024-03-26T01:40:47.022Z,66.13
2024-03-26T01:43:14.014Z,66.13
2024-03-26T01:45:41.324Z,66.09
2024-03-26T01:48:09.893Z,66.27
2024-03-26T01:50:37.605Z,66.18
2024-03-26T01:53:05.525Z,66.37
2024-03-26T01:55:34.396Z,66.56
2024-03-26T01:58:02.950Z,66.60
2024-03-26T02:00:30.791Z,66.45
2024-03-26T02:02:58.141Z,66.49
2024-03-26T02:05:25.279Z,66.67
2024-03-26T02:07:52.373Z,66.47
2024-03-26T02:10:20.117Z,66.55
2024-03-26T02:12:47.054Z,66.65
2024-03-26T02:15:13.996Z,66.54
2024-03-26T02:17:40.883Z,66.60
2024-03-26T02:20:08.766Z,66.67
2024-03-26T02:22:35.755Z,66.58
2024-03-26T02:25:02.715Z,66.75
2024-03-26T02:27:29.670Z,66.69
2024-03-26T02:29:56.601Z,66.81
2024-03-26T02:32:23.567Z,66.69
2024-03-26T02:34:51.299Z,66.74
2024-03-26T02:37:18.454Z,66.83
2024-03-26T02:39:45.422Z,66.93
2024-03-26T02:42:12.929Z,66.86
2024-03-26T02:44:39.779Z,66.86
2024-03-26T02:47:06.792Z,66.69
2024-03-26T02:49:33.685Z,66.73
2024-03-26T02:52:00.753Z,66.77
2024-03-26T02:54:27.782Z,66.83
2024-03-26T02:56:55.028Z,66.94
2024-03-26T02:59:21.951Z,66.91
2024-03-26T03:01:48.795Z,66.79
2024-03-26T03:04:15.792Z,66.95
2024-03-26T03:06:42.657Z,67.04
2024-03-26T03:09:12.856Z,67.05
2024-03-26T03:11:40.126Z,66.97
2024-03-26T03:14:07.236Z,67.14
2024-03-26T03:16:34.100Z,67.04
2024-03-26T03:19:01.258Z,67.02
2024-03-26T03:21:28.378Z,67.04
2024-03-26T03:23:55.393Z,66.95
2024-03-26T03:26:22.395Z,66.91
2024-03-26T03:28:49.345Z,67.07
2024-03-26T03:31:16.270Z,67.14
2024-03-26T03:33:43.213Z,67.23
2024-03-26T03:36:10.123Z,66.98
2024-03-26T03:38:37.163Z,66.70
2024-03-26T03:41:03.972Z,67.02
2024-03-26T03:43:30.787Z,67.13
2024-03-26T03:45:57.886Z,67.23
2024-03-26T03:48:24.974Z,67.13
2024-03-26T03:50:51.777Z,67.15
2024-03-26T03:53:18.780Z,67.31
2024-03-26T03:55:45.669Z,67.34
2024-03-26T03:58:12.548Z,67.27
2024-03-26T04:00:39.434Z,67.22
2024-03-26T04:03:06.563Z,67.26
2024-03-26T04:05:37.834Z,67.31
2024-03-26T04:08:05.423Z,67.46
2024-03-26T04:10:32.347Z,67.55
2024-03-26T04:12:59.144Z,67.50
2024-03-26T04:15:26.096Z,67.37
2024-03-26T04:17:53.297Z,67.50
2024-03-26T04:20:20.200Z,67.57
2024-03-26T04:22:49.901Z,67.62
2024-03-26T04:25:16.883Z,67.71
2024-03-26T04:27:43.671Z,67.71
2024-03-26T04:30:10.986Z,67.90
2024-03-26T04:32:38.402Z,67.92
2024-03-26T04:35:05.538Z,67.76
2024-03-26T04:37:32.411Z,67.88
2024-03-26T04:39:59.276Z,67.74
2024-03-26T04:42:26.316Z,67.76
2024-03-26T04:44:53.327Z,67.88
2024-03-26T04:47:20.425Z,67.89
2024-03-26T04:49:47.375Z,67.78
2024-03-26T04:52:14.294Z,67.82
2024-03-26T04:54:41.298Z,67.81
2024-03-26T04:57:08.257Z,68.00
2024-03-26T04:59:35.232Z,67.66
2024-03-26T05:02:02.109Z,67.72
2024-03-26T05:04:28.985Z,67.87
2024-03-26T05:06:55.934Z,67.91
2024-03-26T05:09:22.962Z,68.04
2024-03-26T05:11:50.256Z,68.13
2024-03-26T05:14:17.125Z,68.06
2024-03-26T05:16:43.994Z,68.16
2024-03-26T05:19:11.225Z,68.15
2024-03-26T05:21:38.084Z,68.16
2024-03-26T05:24:05.267Z,68.27
2024-03-26T05:26:32.300Z,68.29
2024-03-26T05:28:59.184Z,68.31
2024-03-26T05:31:26.413Z,68.45
2024-03-26T05:33:53.564Z,68.45
2024-03-26T05:36:20.535Z,68.53
2024-03-26T05:38:47.565Z,68.36
2024-03-26T05:41:14.547Z,68.49
2024-03-26T05:43:41.365Z,68.28
2024-03-26T05:46:08.263Z,68.48
2024-03-26T05:48:35.355Z,68.39
2024-03-26T05:51:02.350Z,68.18
2024-03-26T05:53:29.150Z,68.35
2024-03-26T05:55:56.188Z,68.35
2024-03-26T05:58:23.345Z,68.42
2024-03-26T06:00:50.513Z,68.33
2024-03-26T06:03:17.438Z,68.13
2024-03-26T06:05:44.400Z,68.03
2024-03-26T06:08:11.348Z,67.96
2024-03-26T06:10:38.300Z,67.71
2024-03-26T06:13:07.611Z,67.85
2024-03-26T06:15:34.652Z,67.88
2024-03-26T06:18:01.557Z,67.97
2024-03-26T06:20:28.495Z,68.00
2024-03-26T06:22:55.439Z,67.98
2024-03-26T06:25:22.699Z,67.92
2024-03-26T06:27:49.625Z,67.99
2024-03-26T06:30:16.594Z,68.10
2024-03-26T06:32:43.673Z,67.76
2024-03-26T06:35:10.552Z,67.74
2024-03-26T06:37:37.470Z,67.75
2024-03-26T06:40:04.957Z,67.69
2024-03-26T06:42:31.879Z,67.51
2024-03-26T06:44:58.804Z,67.68
2024-03-26T06:47:25.904Z,67.88
2024-03-26T06:49:52.884Z,67.96
2024-03-26T06:52:19.726Z,67.92
2024-03-26T06:54:46.821Z,67.93
2024-03-26T06:57:13.621Z,67.71
2024-03-26T06:59:40.612Z,67.71
2024-03-26T07:02:09.220Z,67.54
2024-03-26T07:04:36.140Z,67.57
2024-03-26T07:07:03.201Z,67.54
2024-03-26T07:09:31.631Z,67.55
2024-03-26T07:11:58.448Z,67.36
2024-03-26T07:14:25.513Z,67.24
2024-03-26T07:16:52.488Z,67.02
2024-03-26T07:19:19.349Z,66.71
2024-03-26T07:21:46.280Z,66.64
2024-03-26T07:24:13.229Z,66.42
2024-03-26T07:26:40.178Z,66.32
2024-03-26T07:29:07.195Z,66.31
2024-03-26T07:31:34.096Z,66.35
2024-03-26T07:34:00.989Z,66.23
2024-03-26T07:36:28.183Z,66.16
2024-03-26T07:38:55.312Z,66.16
2024-03-26T07:41:23.577Z,65.99
2024-03-26T07:43:50.698Z,65.79
2024-03-26T07:46:17.644Z,65.69
2024-03-26T07:48:47.462Z,65.47
2024-03-26T07:51:14.666Z,65.54
2024-03-26T07:53:41.582Z,65.62
2024-03-26T07:56:08.477Z,65.55
2024-03-26T07:58:35.495Z,65.45
2024-03-26T08:01:03.866Z,65.40
2024-03-26T08:03:30.887Z,65.04
2024-03-26T08:05:57.843Z,64.83
2024-03-26T08:08:25.505Z,64.88
2024-03-26T08:10:52.488Z,64.85
2024-03-26T08:13:19.397Z,64.59
2024-03-26T08:15:46.764Z,64.39
2024-03-26T08:18:13.800Z,64.21
2024-03-26T08:20:44.550Z,64.03
2024-03-26T08:23:11.580Z,64.02
2024-03-26T08:25:39.612Z,63.80
2024-03-26T08:28:06.823Z,63.94
2024-03-26T08:30:33.932Z,64.17
2024-03-26T08:33:01.248Z,64.20
2024-03-26T08:35:28.333Z,63.99
2024-03-26T08:37:55.588Z,63.90
2024-03-26T08:40:23.845Z,63.92
2024-03-26T08:42:50.733Z,63.63
2024-03-26T08:45:17.634Z,63.35
2024-03-26T08:47:44.765Z,63.13
2024-03-26T08:50:11.621Z,63.00
2024-03-26T08:52:38.505Z,63.27
2024-03-26T08:55:05.700Z,63.47
2024-03-26T08:57:32.686Z,63.68
2024-03-26T08:59:59.634Z,63.41
2024-03-26T09:02:26.539Z,63.10
2024-03-26T09:04:53.730Z,62.81
2024-03-26T09:07:20.632Z,62.83
2024-03-26T09:09:47.616Z,62.55
2024-03-26T09:12:14.438Z,62.66
2024-03-26T09:14:41.416Z,62.16
2024-03-26T09:17:08.414Z,61.77
2024-03-26T09:19:35.324Z,61.18
2024-03-26T09:22:02.273Z,60.87
2024-03-26T09:24:36.432Z,60.68
2024-03-26T09:27:11.008Z,60.32
2024-03-26T09:29:38.021Z,59.92
2024-03-26T09:32:05.378Z,59.17
2024-03-26T09:34:32.297Z,59.52
2024-03-26T09:37:00.090Z,59.58
2024-03-26T09:39:27.011Z,59.41
2024-03-26T09:41:58.201Z,58.72
2024-03-26T09:44:30.123Z,58.59
2024-03-26T09:47:02.486Z,58.29
2024-03-26T09:49:29.784Z,58.14
2024-03-26T09:51:59.742Z,58.24
2024-03-26T09:54:27.910Z,58.36
2024-03-26T09:56:55.832Z,58.27
2024-03-26T09:59:22.895Z,58.06
2024-03-26T10:01:51.334Z,58.19
2024-03-26T10:04:18.595Z,57.68
2024-03-26T10:06:45.939Z,57.57
2024-03-26T10:09:12.988Z,57.57
2024-03-26T10:11:42.733Z,57.20
2024-03-26T10:14:10.121Z,56.97
2024-03-26T10:16:41.409Z,56.48
2024-03-26T10:19:08.370Z,56.58
2024-03-26T10:21:35.495Z,56.81
2024-03-26T10:24:02.946Z,56.67
2024-03-26T10:26:29.847Z,56.66
2024-03-26T10:28:56.760Z,56.60
2024-03-26T10:31:24.584Z,56.73
2024-03-26T10:33:51.496Z,56.84
2024-03-26T10:36:20.468Z,56.99
2024-03-26T10:38:57.044Z,57.05
2024-03-26T10:41:34.038Z,57.12
2024-03-26T10:44:02.471Z,57.25
2024-03-26T10:46:31.201Z,57.16
2024-03-26T10:49:08.462Z,57.06
2024-03-26T10:51:37.300Z,57.04
2024-03-26T10:54:04.845Z,57.14
2024-03-26T10:56:33.557Z,57.32
2024-03-26T10:59:00.959Z,57.52
2024-03-26T11:01:30.181Z,57.66
2024-03-26T11:03:58.992Z,57.64
2024-03-26T11:06:29.029Z,57.65
2024-03-26T11:09:03.081Z,57.80
2024-03-26T11:11:35.283Z,57.84
2024-03-26T11:14:05.061Z,58.14
2024-03-26T11:16:41.442Z,57.90
2024-03-26T11:19:17.369Z,57.87
2024-03-26T11:25:22.284Z,57.76
2024-03-26T11:27:50.681Z,58.06
2024-03-26T11:30:17.795Z,58.19
2024-03-26T11:32:45.207Z,58.31
2024-03-26T11:35:21.916Z,58.35
2024-03-26T11:37:50.302Z,58.50
2024-03-26T11:40:18.111Z,58.57
2024-03-26T11:42:46.530Z,58.46
2024-03-26T11:45:14.633Z,58.61
2024-03-26T11:47:42.502Z,58.52
2024-03-26T11:50:10.082Z,58.57
2024-03-26T11:52:38.377Z,58.60
2024-03-26T11:55:09.581Z,58.51
2024-03-26T11:57:36.927Z,58.64
2024-03-26T12:00:07.261Z,58.62
2024-03-26T12:02:36.323Z,58.69
2024-03-26T12:05:04.498Z,58.72
2024-03-26T12:07:33.777Z,58.82
2024-03-26T12:10:00.972Z,58.78
2024-03-26T12:12:28.064Z,58.72
2024-03-26T12:14:56.558Z,58.65
2024-03-26T12:17:23.558Z,58.80
2024-03-26T12:19:50.832Z,58.87
2024-03-26T12:22:20.102Z,58.79
2024-03-26T12:24:47.403Z,58.84
2024-03-26T12:27:14.811Z,58.86
2024-03-26T12:29:42.195Z,58.90
2024-03-26T12:32:09.518Z,58.88
2024-03-26T12:34:36.627Z,58.91
2024-03-26T12:37:04.026Z,58.87
2024-03-26T12:39:31.876Z,58.76
2024-03-26T12:41:58.722Z,58.81
2024-03-26T12:44:28.160Z,58.87
2024-03-26T12:46:55.095Z,58.67
2024-03-26T12:49:22.253Z,58.55
2024-03-26T12:51:56.049Z,58.55
2024-03-26T12:54:23.622Z,58.59
2024-03-26T12:56:52.878Z,58.51
2024-03-26T12:59:19.726Z,58.29
2024-03-26T13:01:52.449Z,58.26
2024-03-26T13:04:20.943Z,58.21
2024-03-26T13:06:47.856Z,58.08
2024-03-26T13:09:14.806Z,58.10
2024-03-26T13:11:41.977Z,58.05
2024-03-26T13:14:08.901Z,58.02
2024-03-26T13:16:35.947Z,57.78
2024-03-26T13:19:02.887Z,57.74
2024-03-26T13:21:30.134Z,57.46
2024-03-26T13:23:56.989Z,57.50
2024-03-26T13:26:25.150Z,57.50
2024-03-26T13:28:52.510Z,57.44
2024-03-26T13:31:19.536Z,57.64
2024-03-26T13:33:46.526Z,57.66
2024-03-26T13:36:14.390Z,57.79
2024-03-26T13:38:43.072Z,57.90
2024-03-26T13:41:10.923Z,57.85
2024-03-26T13:43:37.847Z,57.94
2024-03-26T13:46:04.666Z,58.04
2024-03-26T13:48:31.587Z,57.85
2024-03-26T13:50:58.654Z,57.73
2024-03-26T13:53:25.636Z,57.77
2024-03-26T13:55:52.474Z,57.70
2024-03-26T13:58:19.410Z,57.63
2024-03-26T14:00:47.394Z,57.78
2024-03-26T14:03:14.505Z,57.70
2024-03-26T14:05:41.631Z,57.61
2024-03-26T14:08:08.567Z,57.54
2024-03-26T14:10:35.633Z,57.52
2024-03-26T14:13:02.475Z,57.43
2024-03-26T14:15:29.427Z,57.39
2024-03-26T14:17:56.305Z,57.27
2024-03-26T14:20:24.007Z,57.24
2024-03-26T14:22:51.501Z,57.14
2024-03-26T14:25:18.953Z,57.20
2024-03-26T14:27:46.378Z,57.01
2024-03-26T14:30:14.946Z,56.97
2024-03-26T14:32:43.056Z,56.91
2024-03-26T14:35:12.412Z,56.99
2024-03-26T14:37:40.166Z,56.88
2024-03-26T14:40:10.721Z,56.77
2024-03-26T14:42:37.601Z,56.83
2024-03-26T14:45:06.245Z,56.82
2024-03-26T14:47:34.089Z,56.70
2024-03-26T14:50:00.938Z,56.65
2024-03-26T14:52:27.885Z,56.51
2024-03-26T14:54:54.843Z,56.40
2024-03-26T14:57:21.662Z,56.40
2024-03-26T14:59:48.633Z,56.25
2024-03-26T15:02:15.640Z,56.12
2024-03-26T15:04:42.564Z,56.14
2024-03-26T15:07:09.968Z,56.04
2024-03-26T15:09:37.687Z,55.98
2024-03-26T15:12:05.012Z,55.93
2024-03-26T15:14:32.906Z,55.99
2024-03-26T15:17:00.114Z,55.95
2024-03-26T15:19:27.067Z,55.90
2024-03-26T15:21:54.368Z,55.81
2024-03-26T15:24:21.405Z,55.80
2024-03-26T15:27:08.800Z,55.63
2024-03-26T15:29:57.414Z,55.66
2024-03-26T15:32:26.151Z,55.66
2024-03-26T15:34:53.422Z,55.67
2024-03-26T15:37:20.544Z,55.60
2024-03-26T15:39:47.750Z,55.56
2024-03-26T15:42:14.772Z,55.51
2024-03-26T15:44:41.895Z,55.62
2024-03-26T15:47:08.799Z,55.56
2024-03-26T15:49:36.324Z,55.59
2024-03-26T15:52:04.386Z,55.59
2024-03-26T15:54:31.449Z,55.50
2024-03-26T15:56:58.441Z,55.48
2024-03-26T15:59:25.468Z,55.37
2024-03-26T16:01:52.331Z,55.44
2024-03-26T16:04:19.268Z,55.42
2024-03-26T16:06:46.495Z,55.44
2024-03-26T16:09:13.536Z,55.44
2024-03-26T16:11:40.628Z,55.42
2024-03-26T16:14:07.479Z,55.44
2024-03-26T16:16:34.351Z,55.46
2024-03-26T16:19:01.593Z,55.47
2024-03-26T16:21:28.589Z,55.56
2024-03-26T17:59:42.586Z,55.80
2024-03-26T18:02:12.425Z,55.95
2024-03-26T18:04:40.723Z,55.95
2024-03-26T18:07:08.877Z,55.95
2024-03-26T18:09:41.656Z,56.16
2024-03-26T18:12:10.475Z,56.09
2024-03-26T18:14:38.695Z,56.11
2024-03-26T18:17:06.778Z,56.25
2024-03-26T18:19:34.907Z,56.30
2024-03-26T18:22:02.960Z,56.36
2024-03-26T18:24:30.926Z,56.35
2024-03-26T18:26:58.948Z,56.33
2024-03-26T18:29:26.887Z,56.39
2024-03-26T18:31:54.972Z,56.38
2024-03-26T18:34:23.032Z,56.44
2024-03-26T18:36:51.062Z,56.40
2024-03-26T18:39:24.459Z,56.54
2024-03-26T18:41:52.793Z,56.54
2024-03-26T18:44:21.472Z,56.57
2024-03-26T18:46:50.054Z,56.59
2024-03-26T18:49:17.972Z,56.59
2024-03-26T18:51:45.982Z,56.70
2024-03-26T18:54:14.223Z,56.78
2024-03-26T18:56:42.211Z,56.75
2024-03-26T18:59:12.253Z,56.80
2024-03-26T19:01:40.555Z,56.97
2024-03-26T19:04:09.366Z,56.96
2024-03-26T19:06:37.386Z,57.09
2024-03-26T19:09:08.717Z,57.18
2024-03-26T19:11:37.118Z,57.23
2024-03-26T19:14:05.194Z,57.17
2024-03-26T19:16:33.710Z,57.38
2024-03-26T19:19:02.909Z,57.32
2024-03-26T19:21:30.902Z,57.36
2024-03-26T19:23:59.093Z,57.43
2024-03-26T19:26:27.392Z,57.60
2024-03-26T19:28:55.767Z,57.75
2024-03-26T19:31:23.932Z,57.77
2024-03-26T19:33:52.048Z,57.74
2024-03-26T19:36:20.585Z,57.73
2024-03-26T19:38:48.693Z,57.72
2024-03-26T19:41:18.013Z,57.82
2024-03-26T19:43:46.581Z,57.99
2024-03-26T19:46:14.585Z,57.96
2024-03-26T19:48:43.662Z,58.15
2024-03-26T19:51:11.691Z,58.14
2024-03-26T19:53:40.694Z,58.27
2024-03-26T19:56:12.330Z,58.18
2024-03-26T19:58:43.381Z,58.34
2024-03-26T20:01:11.755Z,58.44
2024-03-26T20:03:39.826Z,58.50
2024-03-26T20:06:13.192Z,58.58
2024-03-26T20:08:44.548Z,58.50
2024-03-26T20:11:15.099Z,58.59
2024-03-26T20:13:43.344Z,58.81
2024-03-26T20:16:14.408Z,58.76
2024-03-26T20:18:44.140Z,58.90
2024-03-26T20:21:12.499Z,58.85
2024-03-26T20:23:41.564Z,58.95
2024-03-26T20:26:09.937Z,59.05
2024-03-26T20:28:38.288Z,59.06
2024-03-26T20:31:12.383Z,59.21
2024-03-26T20:33:42.121Z,59.31
2024-03-26T20:36:16.929Z,59.34
2024-03-26T20:38:45.186Z,59.32
2024-03-26T20:41:13.133Z,59.35
2024-03-26T20:43:41.323Z,59.41
2024-03-26T20:46:10.125Z,59.50
2024-03-26T20:48:38.251Z,59.49
2024-03-26T20:51:10.662Z,59.51
2024-03-26T20:53:38.531Z,59.60
2024-03-26T20:56:08.589Z,59.67
2024-03-26T20:58:36.761Z,59.64
2024-03-26T21:01:04.932Z,59.75
2024-03-26T21:03:36.002Z,59.91
2024-03-26T21:06:06.219Z,59.87
2024-03-26T21:08:35.263Z,59.88
2024-03-26T21:11:13.235Z,60.06
2024-03-26T21:13:41.456Z,60.00
2024-03-26T21:16:12.228Z,59.96
2024-03-26T21:18:48.648Z,60.08
2024-03-26T21:21:21.049Z,60.12
2024-03-26T21:23:49.252Z,60.07
2024-03-26T21:26:18.757Z,60.10
2024-03-26T21:28:47.395Z,60.11
2024-03-26T21:31:15.546Z,60.15
2024-03-26T21:33:43.913Z,60.27
2024-03-26T21:36:12.487Z,60.36
2024-03-26T21:38:40.800Z,60.35
2024-03-26T21:41:09.077Z,60.40
2024-03-26T21:43:37.077Z,60.34
2024-03-26T21:46:05.134Z,60.32
2024-03-26T21:48:33.316Z,60.45
2024-03-26T21:51:03.018Z,60.53
2024-03-26T21:53:31.055Z,60.54
2024-03-26T21:56:04.047Z,60.53
2024-03-26T21:58:32.196Z,60.53
2024-03-26T22:01:09.548Z,60.61
2024-03-26T22:03:38.170Z,60.62
2024-03-26T22:06:07.800Z,60.71
2024-03-26T22:08:35.975Z,60.63
2024-03-26T22:11:04.190Z,60.61
2024-03-26T22:13:32.748Z,60.81
2024-03-26T22:16:01.811Z,60.82
2024-03-26T22:18:30.234Z,60.79
2024-03-26T22:21:00.525Z,60.77
2024-03-26T22:23:30.335Z,60.86
2024-03-26T22:26:00.481Z,60.86
2024-03-26T22:28:28.794Z,60.87
2024-03-26T22:30:57.044Z,60.92
2024-03-26T22:33:25.272Z,60.90
2024-03-26T22:35:53.268Z,60.93
2024-03-26T22:38:21.362Z,60.99
2024-03-26T22:40:57.559Z,61.02
2024-03-26T22:43:26.463Z,60.96
2024-03-26T22:46:06.455Z,61.03
2024-03-26T22:48:34.467Z,61.18
2024-03-26T22:51:02.496Z,61.21
2024-03-26T22:53:30.533Z,61.05
2024-03-26T22:56:02.541Z,61.09
2024-03-26T22:58:31.295Z,61.15
2024-03-26T23:01:03.491Z,61.16
2024-03-26T23:03:32.095Z,60.99
2024-03-26T23:06:01.479Z,61.09
2024-03-26T23:08:29.811Z,61.21
2024-03-26T23:10:58.185Z,61.10
2024-03-26T23:13:27.552Z,61.16
2024-03-26T23:16:00.563Z,61.00
2024-03-26T23:18:29.187Z,61.07
2024-03-26T23:20:57.484Z,61.18
2024-03-26T23:23:25.688Z,61.22
2024-03-26T23:25:53.895Z,61.12
2024-03-26T23:28:22.046Z,61.08
2024-03-26T23:30:50.149Z,61.19
2024-03-26T23:33:18.508Z,61.19
2024-03-26T23:35:46.729Z,61.17
2024-03-26T23:38:15.311Z,61.20
2024-03-26T23:40:43.321Z,61.23
2024-03-26T23:43:11.310Z,61.22
2024-03-26T23:45:39.349Z,61.38
2024-03-26T23:48:07.579Z,61.29
2024-03-26T23:50:35.607Z,61.20
2024-03-26T23:53:04.126Z,61.16
2024-03-26T23:55:32.906Z,61.24
2024-03-26T23:58:01.845Z,61.35
